createdAt,value
2018-10-17T00:00:23.978Z,16.90
2018-10-17T00:00:57.255Z,16.90
2018-10-17T00:01:30.531Z,16.90
2018-10-17T00:02:03.065Z,16.80
2018-10-17T00:02:35.588Z,16.90
2018-10-17T00:03:08.109Z,16.90
2018-10-17T00:03:40.628Z,16.90
2018-10-17T00:04:13.159Z,16.80
2018-10-17T00:04:45.730Z,16.80
2018-10-17T00:05:57.088Z,16.80
2018-10-17T00:06:30.340Z,16.80
2018-10-17T00:07:02.936Z,16.80
2018-10-17T00:07:35.445Z,16.80
2018-10-17T00:08:08.184Z,16.80
2018-10-17T00:08:40.719Z,16.80
2018-10-17T00:09:13.232Z,16.80
2018-10-17T00:09:45.791Z,16.80
2018-10-17T00:10:18.288Z,16.80
2018-10-17T00:10:50.807Z,16.80
2018-10-17T00:11:23.345Z,16.80
2018-10-17T00:11:55.862Z,16.80
2018-10-17T00:12:28.414Z,16.80
2018-10-17T00:13:00.933Z,16.80
2018-10-17T00:13:34.229Z,16.80
2018-10-17T00:14:06.737Z,16.70
2018-10-17T00:14:39.467Z,16.70
2018-10-17T00:15:11.969Z,16.70
2018-10-17T00:15:44.486Z,16.70
2018-10-17T00:16:16.986Z,16.70
2018-10-17T00:16:49.492Z,16.80
2018-10-17T00:17:22.018Z,16.70
2018-10-17T00:17:54.532Z,16.70
2018-10-17T00:18:27.051Z,16.70
2018-10-17T00:19:00.064Z,16.70
2018-10-17T00:19:33.024Z,16.70
2018-10-17T00:20:06.081Z,16.70
2018-10-17T00:20:39.118Z,16.70
2018-10-17T00:21:12.151Z,16.70
2018-10-17T00:21:45.936Z,16.70
2018-10-17T00:22:18.984Z,16.60
2018-10-17T00:22:52.027Z,16.60
2018-10-17T00:23:25.068Z,16.70
2018-10-17T00:23:58.863Z,16.60
2018-10-17T00:24:32.672Z,16.60
2018-10-17T00:25:05.756Z,16.60
2018-10-17T00:25:38.733Z,16.60
2018-10-17T00:26:11.767Z,16.60
2018-10-17T00:26:44.795Z,16.60
2018-10-17T00:27:17.843Z,16.60
2018-10-17T00:27:50.892Z,16.60
2018-10-17T00:28:24.693Z,16.60
2018-10-17T00:28:58.542Z,16.60
2018-10-17T00:29:32.280Z,16.60
2018-10-17T00:30:06.077Z,16.60
2018-10-17T00:30:39.131Z,16.60
2018-10-17T00:31:12.271Z,16.60
2018-10-17T00:31:45.199Z,16.60
2018-10-17T00:32:18.991Z,16.50
2018-10-17T00:32:52.809Z,16.50
2018-10-17T00:33:25.836Z,16.50
2018-10-17T00:33:58.875Z,16.50
2018-10-17T00:34:31.912Z,16.50
2018-10-17T00:35:05.745Z,16.50
2018-10-17T00:35:39.673Z,16.50
2018-10-17T00:36:12.673Z,16.50
2018-10-17T00:36:46.467Z,16.50
2018-10-17T00:37:20.252Z,16.50
2018-10-17T00:37:53.293Z,16.50
2018-10-17T00:38:26.336Z,16.50
2018-10-17T00:38:59.382Z,16.50
2018-10-17T00:39:33.179Z,16.50
2018-10-17T00:40:06.977Z,16.50
2018-10-17T00:40:40.003Z,16.50
2018-10-17T00:41:13.083Z,16.50
2018-10-17T00:41:46.062Z,16.50
2018-10-17T00:42:19.081Z,16.50
2018-10-17T00:42:52.150Z,16.40
2018-10-17T00:43:25.936Z,16.40
2018-10-17T00:43:59.729Z,16.40
2018-10-17T00:44:32.758Z,16.40
2018-10-17T00:45:05.791Z,16.40
2018-10-17T00:45:38.833Z,16.40
2018-10-17T00:46:12.631Z,16.30
2018-10-17T00:46:46.424Z,16.40
2018-10-17T00:47:20.236Z,16.40
2018-10-17T00:47:53.267Z,16.30
2018-10-17T00:48:26.296Z,16.30
2018-10-17T00:48:59.359Z,16.30
2018-10-17T00:49:32.348Z,16.30
2018-10-17T00:50:05.400Z,16.30
2018-10-17T00:50:38.424Z,16.30
2018-10-17T00:51:11.452Z,16.40
2018-10-17T00:51:44.027Z,16.40
2018-10-17T00:52:16.539Z,16.40
2018-10-17T00:52:49.831Z,16.30
2018-10-17T00:53:22.551Z,16.30
2018-10-17T00:53:55.270Z,16.40
2018-10-17T00:54:28.228Z,16.40
2018-10-17T00:55:00.879Z,16.40
2018-10-17T00:55:33.314Z,16.30
2018-10-17T00:56:05.840Z,16.30
2018-10-17T00:56:38.573Z,16.40
2018-10-17T00:57:11.083Z,16.30
2018-10-17T00:57:43.579Z,16.30
2018-10-17T00:58:16.092Z,16.30
2018-10-17T00:58:48.603Z,16.30
2018-10-17T00:59:21.099Z,16.30
2018-10-17T00:59:54.377Z,16.30
2018-10-17T01:00:26.872Z,16.30
2018-10-17T01:00:59.396Z,16.30
2018-10-17T01:01:31.897Z,16.30
2018-10-17T01:02:04.388Z,16.30
2018-10-17T01:02:36.899Z,16.30
2018-10-17T01:03:09.418Z,16.30
2018-10-17T01:03:41.939Z,16.30
2018-10-17T01:04:14.451Z,16.30
2018-10-17T01:04:46.959Z,16.30
2018-10-17T01:05:19.465Z,16.20
2018-10-17T01:05:51.976Z,16.30
2018-10-17T01:06:24.491Z,16.20
2018-10-17T01:06:57.023Z,16.20
2018-10-17T01:07:29.533Z,16.20
2018-10-17T01:08:02.043Z,16.20
2018-10-17T01:08:34.547Z,16.20
2018-10-17T01:09:07.051Z,16.20
2018-10-17T01:09:39.576Z,16.20
2018-10-17T01:10:12.097Z,16.20
2018-10-17T01:10:44.607Z,16.20
2018-10-17T01:11:17.118Z,16.20
2018-10-17T01:11:49.627Z,16.20
2018-10-17T01:12:22.123Z,16.20
2018-10-17T01:12:54.629Z,16.20
2018-10-17T01:13:27.907Z,16.20
2018-10-17T01:14:00.411Z,16.20
2018-10-17T01:14:33.681Z,16.20
2018-10-17T01:15:06.950Z,16.20
2018-10-17T01:15:39.459Z,16.20
2018-10-17T01:16:11.972Z,16.20
2018-10-17T01:16:44.483Z,16.20
2018-10-17T01:17:17.030Z,16.20
2018-10-17T01:17:49.494Z,16.20
2018-10-17T01:18:22.011Z,16.20
2018-10-17T01:18:54.535Z,16.20
2018-10-17T01:19:26.988Z,16.20
2018-10-17T01:19:59.508Z,16.20
2018-10-17T01:20:32.027Z,16.20
2018-10-17T01:21:04.621Z,16.20
2018-10-17T01:21:37.126Z,16.10
2018-10-17T01:22:09.617Z,16.10
2018-10-17T01:22:42.119Z,16.10
2018-10-17T01:23:14.674Z,16.10
2018-10-17T01:23:47.168Z,16.10
2018-10-17T01:24:20.427Z,16.10
2018-10-17T01:24:52.933Z,16.10
2018-10-17T01:25:25.461Z,16.10
2018-10-17T01:25:57.911Z,16.10
2018-10-17T01:26:30.415Z,16.10
2018-10-17T01:27:02.928Z,16.10
2018-10-17T01:27:35.439Z,16.10
2018-10-17T01:28:07.944Z,16.10
2018-10-17T01:28:40.457Z,16.10
2018-10-17T01:29:13.041Z,16.10
2018-10-17T01:29:45.451Z,16.10
2018-10-17T01:30:17.947Z,16.10
2018-10-17T01:30:50.456Z,16.10
2018-10-17T01:31:22.945Z,16.00
2018-10-17T01:31:56.204Z,16.00
2018-10-17T01:32:28.700Z,16.00
2018-10-17T01:33:01.987Z,16.00
2018-10-17T01:33:34.478Z,16.00
2018-10-17T01:34:06.979Z,16.00
2018-10-17T01:34:39.482Z,16.00
2018-10-17T01:35:12.007Z,16.00
2018-10-17T01:35:44.467Z,16.00
2018-10-17T01:36:16.963Z,16.00
2018-10-17T01:36:50.375Z,16.00
2018-10-17T01:37:22.873Z,16.00
2018-10-17T01:37:55.383Z,16.00
2018-10-17T01:38:28.060Z,16.00
2018-10-17T01:39:00.543Z,16.00
2018-10-17T01:39:33.055Z,16.00
2018-10-17T01:40:05.570Z,16.00
2018-10-17T01:40:38.078Z,15.90
2018-10-17T01:41:10.632Z,16.00
2018-10-17T01:41:43.075Z,16.00
2018-10-17T01:42:15.587Z,16.00
2018-10-17T01:42:48.095Z,16.00
2018-10-17T01:43:20.618Z,16.00
2018-10-17T01:43:53.120Z,16.00
2018-10-17T01:44:25.636Z,15.90
2018-10-17T01:44:58.130Z,15.90
2018-10-17T01:45:30.630Z,15.90
2018-10-17T01:46:03.146Z,15.90
2018-10-17T01:46:35.651Z,15.90
2018-10-17T01:47:08.961Z,15.90
2018-10-17T01:47:41.435Z,15.90
2018-10-17T01:48:13.955Z,15.90
2018-10-17T01:48:47.235Z,15.90
2018-10-17T01:49:20.516Z,15.80
2018-10-17T01:49:53.808Z,15.90
2018-10-17T01:50:26.308Z,15.80
2018-10-17T01:50:58.813Z,15.80
2018-10-17T01:51:31.315Z,15.80
2018-10-17T01:52:03.824Z,15.90
2018-10-17T01:52:36.319Z,15.90
2018-10-17T01:53:08.888Z,15.80
2018-10-17T01:53:41.328Z,15.90
2018-10-17T01:54:14.598Z,15.90
2018-10-17T01:54:47.863Z,15.90
2018-10-17T01:55:20.392Z,15.80
2018-10-17T01:55:52.909Z,15.90
2018-10-17T01:56:25.403Z,15.90
2018-10-17T01:56:57.904Z,15.90
2018-10-17T01:57:30.395Z,15.80
2018-10-17T01:58:03.780Z,15.80
2018-10-17T01:58:37.062Z,15.80
2018-10-17T01:59:09.624Z,15.80
2018-10-17T01:59:42.224Z,15.80
2018-10-17T02:00:14.725Z,15.80
2018-10-17T02:00:47.236Z,15.80
2018-10-17T02:01:19.728Z,15.80
2018-10-17T02:01:52.231Z,15.80
2018-10-17T02:02:24.727Z,15.80
2018-10-17T02:02:57.232Z,15.80
2018-10-17T02:03:29.753Z,15.80
2018-10-17T02:04:02.278Z,15.80
2018-10-17T02:04:35.543Z,15.80
2018-10-17T02:05:08.082Z,15.70
2018-10-17T02:05:40.579Z,15.80
2018-10-17T02:06:13.847Z,15.80
2018-10-17T02:06:46.355Z,15.80
2018-10-17T02:07:18.882Z,15.80
2018-10-17T02:07:52.160Z,15.70
2018-10-17T02:08:24.663Z,15.70
2018-10-17T02:08:57.175Z,15.70
2018-10-17T02:09:29.674Z,15.70
2018-10-17T02:10:02.175Z,15.70
2018-10-17T02:10:34.681Z,15.70
2018-10-17T02:11:07.255Z,15.70
2018-10-17T02:11:39.703Z,15.70
2018-10-17T02:12:12.976Z,15.70
2018-10-17T02:12:45.482Z,15.70
2018-10-17T02:13:17.983Z,15.70
2018-10-17T02:13:50.500Z,15.70
2018-10-17T02:14:22.986Z,15.70
2018-10-17T02:14:55.496Z,15.70
2018-10-17T02:15:27.979Z,15.70
2018-10-17T02:16:00.492Z,15.70
2018-10-17T02:16:33.763Z,15.70
2018-10-17T02:17:06.339Z,15.60
2018-10-17T02:17:39.524Z,15.70
2018-10-17T02:18:12.016Z,15.70
2018-10-17T02:18:44.538Z,15.70
2018-10-17T02:19:17.039Z,15.70
2018-10-17T02:19:49.535Z,15.60
2018-10-17T02:20:22.044Z,15.70
2018-10-17T02:20:54.539Z,15.70
2018-10-17T02:21:27.803Z,15.70
2018-10-17T02:22:01.068Z,15.70
2018-10-17T02:22:33.560Z,15.70
2018-10-17T02:23:06.118Z,15.70
2018-10-17T02:23:38.588Z,15.60
2018-10-17T02:24:11.084Z,15.60
2018-10-17T02:24:44.031Z,15.60
2018-10-17T02:25:17.082Z,15.60
2018-10-17T02:25:50.108Z,15.60
2018-10-17T02:26:23.140Z,15.60
2018-10-17T02:26:56.938Z,15.60
2018-10-17T02:27:29.967Z,15.60
2018-10-17T02:28:02.991Z,15.60
2018-10-17T02:28:36.024Z,15.60
2018-10-17T02:29:09.109Z,15.60
2018-10-17T02:29:42.088Z,15.60
2018-10-17T02:30:15.128Z,15.60
2018-10-17T02:30:48.169Z,15.60
2018-10-17T02:31:21.278Z,15.60
2018-10-17T02:31:54.232Z,15.60
2018-10-17T02:32:27.269Z,15.60
2018-10-17T02:33:00.284Z,15.60
2018-10-17T02:33:33.312Z,15.60
2018-10-17T02:34:06.333Z,15.60
2018-10-17T02:34:39.352Z,15.60
2018-10-17T02:35:12.485Z,15.60
2018-10-17T02:35:45.408Z,15.60
2018-10-17T02:36:18.438Z,15.60
2018-10-17T02:36:51.553Z,15.60
2018-10-17T02:37:24.528Z,15.60
2018-10-17T02:37:57.557Z,15.60
2018-10-17T02:38:30.592Z,15.60
2018-10-17T02:39:04.371Z,15.60
2018-10-17T02:39:37.441Z,15.60
2018-10-17T02:40:10.427Z,15.60
2018-10-17T02:40:44.232Z,15.60
2018-10-17T02:41:18.142Z,15.60
2018-10-17T02:41:51.180Z,15.50
2018-10-17T02:42:24.223Z,15.60
2018-10-17T02:42:57.257Z,15.50
2018-10-17T02:43:31.048Z,15.50
2018-10-17T02:44:04.080Z,15.50
2018-10-17T02:44:37.106Z,15.50
2018-10-17T02:45:10.135Z,15.50
2018-10-17T02:45:43.152Z,15.50
2018-10-17T02:46:16.184Z,15.50
2018-10-17T02:46:49.224Z,15.50
2018-10-17T02:47:22.257Z,15.50
2018-10-17T02:47:56.048Z,15.50
2018-10-17T02:48:29.851Z,15.50
2018-10-17T02:49:03.701Z,15.50
2018-10-17T02:49:36.689Z,15.50
2018-10-17T02:50:09.724Z,15.50
2018-10-17T02:50:42.757Z,15.50
2018-10-17T02:51:16.544Z,15.50
2018-10-17T02:51:50.348Z,15.50
2018-10-17T02:52:24.157Z,15.50
2018-10-17T02:52:57.239Z,15.50
2018-10-17T02:53:30.220Z,15.50
2018-10-17T02:54:03.251Z,15.50
2018-10-17T02:54:37.043Z,15.50
2018-10-17T02:55:10.855Z,15.50
2018-10-17T02:55:44.628Z,15.50
2018-10-17T02:56:18.424Z,15.50
2018-10-17T02:56:52.229Z,15.40
2018-10-17T02:57:26.020Z,15.40
2018-10-17T02:57:59.820Z,15.40
2018-10-17T02:58:32.844Z,15.40
2018-10-17T02:59:05.949Z,15.40
2018-10-17T02:59:38.900Z,15.40
2018-10-17T03:00:11.943Z,15.40
2018-10-17T03:00:44.973Z,15.40
2018-10-17T03:01:18.067Z,15.40
2018-10-17T03:01:51.026Z,15.40
2018-10-17T03:02:24.827Z,15.30
2018-10-17T03:02:57.851Z,15.40
2018-10-17T03:03:30.885Z,15.40
2018-10-17T03:04:03.920Z,15.40
2018-10-17T03:04:36.952Z,15.40
2018-10-17T03:05:09.999Z,15.40
2018-10-17T03:05:43.001Z,15.30
2018-10-17T03:06:16.027Z,15.40
2018-10-17T03:06:49.043Z,15.40
2018-10-17T03:07:22.105Z,15.40
2018-10-17T03:07:55.133Z,15.30
2018-10-17T03:08:28.166Z,15.30
2018-10-17T03:09:01.195Z,15.30
2018-10-17T03:09:34.212Z,15.30
2018-10-17T03:10:07.252Z,15.30
2018-10-17T03:10:41.040Z,15.30
2018-10-17T03:11:14.093Z,15.40
2018-10-17T03:11:47.091Z,15.30
2018-10-17T03:12:20.902Z,15.30
2018-10-17T03:12:54.762Z,15.30
2018-10-17T03:13:27.774Z,15.30
2018-10-17T03:14:00.815Z,15.30
2018-10-17T03:14:33.854Z,15.30
2018-10-17T03:15:06.887Z,15.30
2018-10-17T03:15:40.679Z,15.30
2018-10-17T03:16:14.472Z,15.30
2018-10-17T03:16:48.261Z,15.30
2018-10-17T03:17:22.069Z,15.30
2018-10-17T03:17:55.122Z,15.30
2018-10-17T03:18:28.912Z,15.30
2018-10-17T03:19:02.787Z,15.30
2018-10-17T03:19:35.800Z,15.30
2018-10-17T03:20:08.848Z,15.30
2018-10-17T03:20:41.952Z,15.30
2018-10-17T03:21:14.978Z,15.30
2018-10-17T03:21:48.013Z,15.30
2018-10-17T03:22:21.052Z,15.20
2018-10-17T03:22:54.095Z,15.30
2018-10-17T03:23:27.117Z,15.20
2018-10-17T03:24:00.911Z,15.20
2018-10-17T03:24:34.700Z,15.20
2018-10-17T03:25:08.614Z,15.20
2018-10-17T03:25:42.295Z,15.20
2018-10-17T03:26:15.324Z,15.20
2018-10-17T03:26:48.360Z,15.20
2018-10-17T03:27:21.408Z,15.20
2018-10-17T03:27:55.238Z,15.20
2018-10-17T03:28:28.984Z,15.20
2018-10-17T03:29:02.844Z,15.20
2018-10-17T03:29:36.571Z,15.20
2018-10-17T03:30:10.371Z,15.20
2018-10-17T03:30:44.171Z,15.20
2018-10-17T03:31:17.293Z,15.20
2018-10-17T03:31:50.240Z,15.20
2018-10-17T03:32:23.279Z,15.10
2018-10-17T03:32:57.067Z,15.20
2018-10-17T03:33:30.865Z,15.20
2018-10-17T03:34:04.660Z,15.10
2018-10-17T03:34:37.704Z,15.10
2018-10-17T03:35:10.806Z,15.20
2018-10-17T03:35:43.784Z,15.10
2018-10-17T03:36:16.812Z,15.10
2018-10-17T03:36:49.839Z,15.10
2018-10-17T03:37:22.885Z,15.10
2018-10-17T03:37:55.923Z,15.10
2018-10-17T03:38:28.956Z,15.10
2018-10-17T03:39:02.751Z,15.10
2018-10-17T03:39:36.553Z,15.10
2018-10-17T03:40:09.601Z,15.10
2018-10-17T03:40:42.640Z,15.10
2018-10-17T03:41:15.777Z,15.10
2018-10-17T03:41:48.723Z,15.10
2018-10-17T03:42:21.764Z,15.10
2018-10-17T03:42:54.843Z,15.10
2018-10-17T03:43:28.577Z,15.10
2018-10-17T03:44:01.608Z,15.10
2018-10-17T03:44:34.832Z,15.10
2018-10-17T03:45:07.851Z,15.10
2018-10-17T03:45:40.888Z,15.10
2018-10-17T03:46:13.923Z,15.10
2018-10-17T03:46:46.957Z,15.10
2018-10-17T03:47:20.012Z,15.10
2018-10-17T03:47:53.822Z,15.10
2018-10-17T03:48:26.851Z,15.10
2018-10-17T03:48:59.869Z,15.10
2018-10-17T03:49:32.910Z,15.10
2018-10-17T03:50:05.933Z,15.10
2018-10-17T03:50:38.969Z,15.10
2018-10-17T03:51:12.764Z,15.10
2018-10-17T03:51:46.560Z,15.10
2018-10-17T03:52:19.612Z,15.10
2018-10-17T03:52:52.671Z,15.10
2018-10-17T03:53:25.677Z,15.10
2018-10-17T03:53:59.477Z,15.00
2018-10-17T03:54:33.323Z,15.00
2018-10-17T03:55:06.378Z,15.00
2018-10-17T03:55:40.138Z,15.10
2018-10-17T03:56:13.177Z,15.10
2018-10-17T03:56:46.208Z,15.10
2018-10-17T03:57:19.255Z,15.00
2018-10-17T03:57:53.064Z,15.00
2018-10-17T03:58:26.084Z,15.00
2018-10-17T03:58:59.137Z,15.00
2018-10-17T03:59:32.278Z,15.00
2018-10-17T04:00:05.192Z,15.00
2018-10-17T04:00:38.204Z,15.00
2018-10-17T04:01:12.060Z,15.00
2018-10-17T04:01:45.025Z,15.00
2018-10-17T04:02:18.056Z,15.10
2018-10-17T04:02:51.879Z,15.00
2018-10-17T04:03:24.895Z,15.00
2018-10-17T04:03:57.925Z,15.00
2018-10-17T04:04:30.948Z,15.00
2018-10-17T04:05:03.989Z,15.00
2018-10-17T04:05:37.255Z,15.00
2018-10-17T04:06:10.304Z,15.00
2018-10-17T04:06:44.096Z,15.00
2018-10-17T04:07:17.986Z,14.90
2018-10-17T04:07:50.945Z,14.90
2018-10-17T04:08:23.994Z,14.90
2018-10-17T04:08:57.026Z,14.90
2018-10-17T04:09:30.061Z,14.90
2018-10-17T04:10:03.088Z,14.90
2018-10-17T04:10:36.117Z,14.90
2018-10-17T04:11:09.238Z,14.90
2018-10-17T04:11:42.175Z,14.90
2018-10-17T04:12:15.969Z,14.90
2018-10-17T04:12:49.767Z,14.90
2018-10-17T04:13:23.563Z,14.90
2018-10-17T04:13:56.604Z,14.90
2018-10-17T04:14:29.640Z,14.90
2018-10-17T04:15:02.675Z,14.90
2018-10-17T04:15:36.464Z,14.90
2018-10-17T04:16:10.272Z,14.90
2018-10-17T04:16:44.083Z,14.90
2018-10-17T04:17:17.173Z,14.90
2018-10-17T04:17:50.157Z,14.90
2018-10-17T04:18:23.201Z,14.90
2018-10-17T04:18:56.244Z,14.90
2018-10-17T04:19:29.260Z,14.90
2018-10-17T04:20:02.303Z,14.90
2018-10-17T04:20:35.390Z,14.90
2018-10-17T04:21:08.360Z,14.90
2018-10-17T04:21:42.163Z,14.90
2018-10-17T04:22:15.205Z,14.90
2018-10-17T04:22:48.266Z,14.90
2018-10-17T04:23:21.299Z,14.80
2018-10-17T04:23:54.328Z,14.90
2018-10-17T04:24:27.361Z,14.80
2018-10-17T04:25:00.461Z,14.90
2018-10-17T04:25:34.191Z,14.90
2018-10-17T04:26:07.998Z,14.80
2018-10-17T04:26:41.023Z,14.80
2018-10-17T04:27:14.056Z,14.80
2018-10-17T04:27:47.092Z,14.80
2018-10-17T04:28:20.136Z,14.80
2018-10-17T04:28:53.181Z,14.80
2018-10-17T04:29:26.397Z,14.80
2018-10-17T04:29:59.423Z,14.90
2018-10-17T04:30:32.476Z,14.80
2018-10-17T04:31:05.538Z,14.90
2018-10-17T04:31:38.532Z,14.90
2018-10-17T04:32:12.332Z,14.80
2018-10-17T04:32:46.133Z,14.80
2018-10-17T04:33:19.176Z,14.80
2018-10-17T04:33:52.203Z,14.80
2018-10-17T04:34:25.231Z,14.80
2018-10-17T04:34:59.029Z,14.80
2018-10-17T04:35:32.823Z,14.80
2018-10-17T04:36:06.689Z,14.80
2018-10-17T04:36:39.682Z,14.70
2018-10-17T04:37:13.549Z,14.80
2018-10-17T04:37:47.265Z,14.80
2018-10-17T04:38:21.067Z,14.70
2018-10-17T04:38:54.883Z,14.80
2018-10-17T04:39:27.903Z,14.80
2018-10-17T04:40:01.164Z,14.80
2018-10-17T04:40:34.183Z,14.80
2018-10-17T04:41:08.033Z,14.70
2018-10-17T04:41:41.778Z,14.70
2018-10-17T04:42:15.581Z,14.70
2018-10-17T04:42:48.645Z,14.70
2018-10-17T04:43:22.457Z,14.70
2018-10-17T04:43:55.492Z,14.70
2018-10-17T04:44:28.529Z,14.70
2018-10-17T04:45:01.558Z,14.70
2018-10-17T04:45:35.362Z,14.70
2018-10-17T04:46:08.401Z,14.70
2018-10-17T04:46:41.426Z,14.70
2018-10-17T04:47:14.664Z,14.70
2018-10-17T04:47:47.748Z,14.70
2018-10-17T04:48:20.691Z,14.70
2018-10-17T04:48:53.798Z,14.70
2018-10-17T04:49:26.778Z,14.70
2018-10-17T04:50:00.568Z,14.70
2018-10-17T04:50:34.363Z,14.70
2018-10-17T04:51:07.392Z,14.70
2018-10-17T04:51:40.434Z,14.70
2018-10-17T04:52:13.473Z,14.70
2018-10-17T04:52:47.280Z,14.70
2018-10-17T04:53:21.097Z,14.60
2018-10-17T04:53:54.145Z,14.60
2018-10-17T04:54:27.943Z,14.70
2018-10-17T04:55:00.986Z,14.60
2018-10-17T04:55:34.000Z,14.60
2018-10-17T04:56:07.032Z,14.60
2018-10-17T04:56:40.074Z,14.60
2018-10-17T04:57:13.094Z,14.60
2018-10-17T04:57:46.903Z,14.60
2018-10-17T04:58:19.963Z,14.60
2018-10-17T04:58:53.767Z,14.60
2018-10-17T04:59:27.565Z,14.60
2018-10-17T05:00:01.351Z,14.60
2018-10-17T05:00:35.150Z,14.60
2018-10-17T05:01:09.037Z,14.60
2018-10-17T05:01:42.011Z,14.60
2018-10-17T05:02:15.806Z,14.60
2018-10-17T05:02:48.844Z,14.60
2018-10-17T05:03:21.883Z,14.60
2018-10-17T05:03:54.938Z,14.60
2018-10-17T05:04:28.038Z,14.60
2018-10-17T05:05:01.777Z,14.60
2018-10-17T05:05:34.693Z,14.60
2018-10-17T05:06:07.764Z,14.60
2018-10-17T05:06:40.810Z,14.60
2018-10-17T05:07:14.609Z,14.60
2018-10-17T05:07:47.627Z,14.60
2018-10-17T05:08:20.700Z,14.60
2018-10-17T05:08:53.744Z,14.50
2018-10-17T05:09:27.532Z,14.60
2018-10-17T05:10:00.577Z,14.60
2018-10-17T05:10:33.612Z,14.60
2018-10-17T05:11:06.758Z,14.60
2018-10-17T05:11:40.459Z,14.50
2018-10-17T05:12:13.489Z,14.50
2018-10-17T05:12:46.535Z,14.50
2018-10-17T05:13:19.566Z,14.50
2018-10-17T05:13:53.369Z,14.50
2018-10-17T05:14:26.489Z,14.50
2018-10-17T05:14:59.530Z,14.50
2018-10-17T05:15:32.556Z,14.50
2018-10-17T05:16:05.588Z,14.50
2018-10-17T05:16:38.625Z,14.50
2018-10-17T05:17:12.496Z,14.50
2018-10-17T05:17:45.470Z,14.40
2018-10-17T05:18:18.514Z,14.40
2018-10-17T05:18:51.586Z,14.50
2018-10-17T05:19:24.608Z,14.40
2018-10-17T05:19:57.667Z,14.50
2018-10-17T05:20:30.689Z,14.50
2018-10-17T05:21:03.739Z,14.50
2018-10-17T05:21:37.553Z,14.40
2018-10-17T05:22:10.575Z,14.40
2018-10-17T05:22:43.607Z,14.50
2018-10-17T05:23:16.907Z,14.40
2018-10-17T05:23:49.953Z,14.40
2018-10-17T05:24:22.979Z,14.40
2018-10-17T05:24:56.018Z,14.40
2018-10-17T05:25:29.102Z,14.40
2018-10-17T05:26:02.080Z,14.40
2018-10-17T05:26:35.116Z,14.40
2018-10-17T05:27:08.916Z,14.40
2018-10-17T05:27:41.952Z,14.40
2018-10-17T05:28:14.984Z,14.40
2018-10-17T05:28:48.042Z,14.50
2018-10-17T05:29:21.083Z,14.40
2018-10-17T05:29:54.179Z,14.40
2018-10-17T05:30:27.162Z,14.40
2018-10-17T05:31:00.501Z,14.40
2018-10-17T05:31:33.496Z,14.40
2018-10-17T05:32:07.311Z,14.40
2018-10-17T05:32:41.101Z,14.40
2018-10-17T05:33:14.132Z,14.40
2018-10-17T05:33:47.173Z,14.40
2018-10-17T05:34:20.216Z,14.30
2018-10-17T05:34:54.034Z,14.30
2018-10-17T05:35:27.069Z,14.30
2018-10-17T05:36:00.133Z,14.30
2018-10-17T05:36:33.157Z,14.30
2018-10-17T05:37:06.213Z,14.30
2018-10-17T05:37:39.286Z,14.30
2018-10-17T05:38:12.261Z,14.30
2018-10-17T05:38:46.069Z,14.40
2018-10-17T05:39:19.118Z,14.40
2018-10-17T05:39:52.927Z,14.30
2018-10-17T05:40:26.724Z,14.30
2018-10-17T05:40:59.794Z,14.30
2018-10-17T05:41:32.799Z,14.30
2018-10-17T05:42:05.843Z,14.30
2018-10-17T05:42:38.904Z,14.30
2018-10-17T05:43:12.749Z,14.30
2018-10-17T05:43:46.496Z,14.30
2018-10-17T05:44:20.345Z,14.30
2018-10-17T05:44:53.358Z,14.30
2018-10-17T05:45:27.160Z,14.30
2018-10-17T05:46:00.196Z,14.30
2018-10-17T05:46:33.236Z,14.30
2018-10-17T05:47:06.339Z,14.30
2018-10-17T05:47:40.077Z,14.30
2018-10-17T05:48:13.125Z,14.30
2018-10-17T05:48:46.148Z,14.30
2018-10-17T05:49:19.204Z,14.30
2018-10-17T05:49:52.236Z,14.30
2018-10-17T05:50:25.271Z,14.30
2018-10-17T05:50:58.379Z,14.30
2018-10-17T05:51:31.412Z,14.30
2018-10-17T05:52:04.816Z,14.30
2018-10-17T18:28:47.639Z,18.80
2018-10-17T18:29:21.081Z,18.80
2018-10-17T18:29:54.541Z,18.80
2018-10-17T18:30:29.188Z,18.80
2018-10-17T18:31:03.591Z,18.80
2018-10-17T18:31:38.541Z,18.70
2018-10-17T18:32:12.177Z,18.70
2018-10-17T18:32:45.447Z,18.70
2018-10-17T18:33:20.448Z,18.70
2018-10-17T18:33:53.435Z,18.70
2018-10-17T18:34:26.486Z,18.70
2018-10-17T18:34:59.534Z,18.70
2018-10-17T18:35:32.637Z,18.70
2018-10-17T18:36:05.916Z,18.70
2018-10-17T18:36:38.998Z,18.70
2018-10-17T18:37:52.549Z,18.60
2018-10-17T18:38:29.303Z,18.60
2018-10-17T18:39:03.980Z,18.70
2018-10-17T18:39:38.556Z,18.70
2018-10-17T18:40:15.796Z,18.70
2018-10-17T18:40:59.462Z,18.70
2018-10-17T18:41:32.387Z,18.70
2018-10-17T18:42:05.390Z,18.60
2018-10-17T18:42:39.184Z,18.60
2018-10-17T18:43:12.502Z,18.60
2018-10-17T18:43:45.265Z,18.60
2018-10-17T18:44:19.756Z,18.60
2018-10-17T18:45:31.777Z,18.60
2018-10-17T18:46:04.545Z,18.60
2018-10-17T18:46:38.754Z,18.60
2018-10-17T18:47:12.426Z,18.60
2018-10-17T18:47:46.774Z,18.60
2018-10-17T18:48:20.299Z,18.60
2018-10-17T18:48:53.750Z,18.60
2018-10-17T18:49:30.060Z,18.60
2018-10-17T18:50:03.792Z,18.60
2018-10-17T18:50:36.736Z,18.50
2018-10-17T18:51:10.274Z,18.60
2018-10-17T18:51:42.859Z,18.60
2018-10-17T18:52:15.888Z,18.50
2018-10-17T18:52:49.660Z,18.50
2018-10-17T18:53:22.584Z,18.50
2018-10-17T18:53:56.653Z,18.50
2018-10-17T18:54:30.090Z,18.50
2018-10-17T18:55:03.789Z,18.50
2018-10-17T18:55:36.514Z,18.50
2018-10-17T18:56:11.120Z,18.50
2018-10-17T18:56:44.100Z,18.50
2018-10-17T18:57:16.983Z,18.50
2018-10-17T18:57:49.639Z,18.50
2018-10-17T18:58:24.322Z,18.50
2018-10-17T18:58:57.025Z,18.40
2018-10-17T18:59:29.615Z,18.50
2018-10-17T19:00:02.200Z,18.50
2018-10-17T19:00:36.183Z,18.40
2018-10-17T19:01:09.068Z,18.40
2018-10-17T19:01:42.935Z,18.40
2018-10-17T19:02:16.306Z,18.40
2018-10-17T19:02:48.967Z,18.40
2018-10-17T19:03:21.804Z,18.40
2018-10-17T19:03:54.942Z,18.40
2018-10-17T19:04:28.162Z,18.40
2018-10-17T19:05:01.004Z,18.30
2018-10-17T19:05:36.618Z,18.40
2018-10-17T19:06:09.944Z,18.30
2018-10-17T19:06:43.637Z,18.30
2018-10-17T19:07:16.297Z,18.30
2018-10-17T19:07:50.985Z,18.30
2018-10-17T19:08:23.638Z,18.30
2018-10-17T19:08:56.439Z,18.30
2018-10-17T19:09:28.952Z,18.30
2018-10-17T19:10:02.825Z,18.30
2018-10-17T19:10:35.561Z,18.30
2018-10-17T19:11:08.482Z,18.30
2018-10-17T19:11:41.170Z,18.30
2018-10-17T19:12:13.850Z,18.20
2018-10-17T19:13:25.176Z,18.20
2018-10-17T19:13:58.213Z,18.20
2018-10-17T19:14:31.267Z,18.70
2018-10-17T19:15:04.417Z,18.20
2018-10-17T19:15:37.393Z,18.20
2018-10-17T19:16:10.501Z,18.20
2018-10-17T19:16:43.473Z,18.20
2018-10-17T19:17:16.532Z,18.20
2018-10-17T19:17:49.581Z,18.20
2018-10-17T19:18:22.636Z,18.20
2018-10-17T19:18:55.676Z,18.10
2018-10-17T19:19:28.743Z,18.10
2018-10-17T19:20:01.781Z,18.20
2018-10-17T19:20:35.592Z,18.20
2018-10-17T19:21:08.659Z,18.10
2018-10-17T19:21:42.451Z,18.10
2018-10-17T19:22:15.486Z,18.10
2018-10-17T19:22:48.526Z,18.20
2018-10-17T19:23:21.559Z,18.10
2018-10-17T19:23:55.396Z,18.10
2018-10-17T19:24:28.464Z,17.80
2018-10-17T19:25:01.484Z,18.10
2018-10-17T19:25:34.507Z,18.10
2018-10-17T19:26:07.544Z,18.10
2018-10-17T19:26:40.579Z,18.10
2018-10-17T19:27:13.696Z,18.10
2018-10-17T19:27:46.679Z,18.10
2018-10-17T19:28:20.477Z,18.10
2018-10-17T19:28:53.088Z,18.10
2018-10-17T19:29:25.616Z,18.10
2018-10-17T19:29:58.195Z,18.10
2018-10-17T19:30:31.413Z,18.10
2018-10-17T19:31:03.943Z,18.00
2018-10-17T19:31:36.492Z,18.10
2018-10-17T19:32:09.031Z,18.00
2018-10-17T19:32:41.541Z,18.00
2018-10-17T19:33:14.136Z,18.00
2018-10-17T19:33:46.579Z,18.00
2018-10-17T19:34:19.527Z,18.00
2018-10-17T19:34:52.804Z,18.00
2018-10-17T19:35:25.836Z,18.00
2018-10-17T19:35:59.702Z,18.00
2018-10-17T19:36:32.682Z,18.00
2018-10-17T19:37:05.728Z,18.00
2018-10-17T19:37:38.780Z,18.00
2018-10-17T19:38:11.823Z,18.00
2018-10-17T19:38:45.642Z,18.00
2018-10-17T19:39:18.781Z,18.00
2018-10-17T19:39:52.516Z,18.00
2018-10-17T19:40:25.568Z,17.90
2018-10-17T19:40:59.357Z,17.90
2018-10-17T19:41:33.167Z,17.90
2018-10-17T19:42:06.300Z,17.90
2018-10-17T19:42:40.043Z,17.90
2018-10-17T19:43:13.107Z,17.90
2018-10-17T19:43:46.136Z,17.90
2018-10-17T19:44:19.177Z,17.90
2018-10-17T19:44:52.218Z,17.90
2018-10-17T19:45:26.043Z,17.90